sensor_id;sensor_type;location;lat;lon;timestamp;pressure;altitude;pressure_sealevel;temperature;humidity
19526;BME280;9907;42.676;26.348;2022-12-18T00:00:31;99484.38;;;13.20;97.16
19526;BME280;9907;42.676;26.348;2022-12-18T00:02:56;99490.31;;;13.13;97.99
19526;BME280;9907;42.676;26.348;2022-12-18T00:05:21;99484.09;;;13.13;96.79
19526;BME280;9907;42.676;26.348;2022-12-18T00:07:47;99489.16;;;13.16;95.00
19526;BME280;9907;42.676;26.348;2022-12-18T00:10:12;99494.41;;;13.18;93.04
19526;BME280;9907;42.676;26.348;2022-12-18T00:12:38;99498.63;;;13.20;92.61
19526;BME280;9907;42.676;26.348;2022-12-18T00:15:03;99505.00;;;13.19;92.63
19526;BME280;9907;42.676;26.348;2022-12-18T00:17:29;99506.97;;;13.17;91.53
19526;BME280;9907;42.676;26.348;2022-12-18T00:19:54;99508.66;;;13.18;90.89
19526;BME280;9907;42.676;26.348;2022-12-18T00:22:20;99510.63;;;13.16;91.52
19526;BME280;9907;42.676;26.348;2022-12-18T00:24:45;99513.31;;;13.16;91.18
19526;BME280;9907;42.676;26.348;2022-12-18T00:27:11;99508.97;;;13.15;91.83
19526;BME280;9907;42.676;26.348;2022-12-18T00:29:36;99517.13;;;13.13;91.50
19526;BME280;9907;42.676;26.348;2022-12-18T00:32:01;99536.03;;;13.12;90.12
19526;BME280;9907;42.676;26.348;2022-12-18T00:34:27;99531.53;;;13.12;89.70
19526;BME280;9907;42.676;26.348;2022-12-18T00:36:52;99537.75;;;13.13;90.15
19526;BME280;9907;42.676;26.348;2022-12-18T00:39:18;99540.41;;;13.13;88.17
19526;BME280;9907;42.676;26.348;2022-12-18T00:41:43;99539.44;;;13.14;89.20
19526;BME280;9907;42.676;26.348;2022-12-18T00:44:27;99535.06;;;13.13;87.53
19526;BME280;9907;42.676;26.348;2022-12-18T00:46:53;99533.09;;;13.15;87.48
19526;BME280;9907;42.676;26.348;2022-12-18T00:49:19;99535.78;;;13.15;87.30
19526;BME280;9907;42.676;26.348;2022-12-18T00:51:44;99534.06;;;13.14;86.43
19526;BME280;9907;42.676;26.348;2022-12-18T00:54:10;99549.31;;;13.13;86.04
19526;BME280;9907;42.676;26.348;2022-12-18T00:56:37;99546.75;;;13.12;86.80
19526;BME280;9907;42.676;26.348;2022-12-18T00:59:03;99549.44;;;13.12;86.75
19526;BME280;9907;42.676;26.348;2022-12-18T01:01:29;99538.03;;;13.10;87.71
19526;BME280;9907;42.676;26.348;2022-12-18T01:03:57;99543.50;;;13.08;88.27
19526;BME280;9907;42.676;26.348;2022-12-18T01:06:22;99549.84;;;13.07;90.26
19526;BME280;9907;42.676;26.348;2022-12-18T01:08:48;99554.38;;;13.07;89.62
19526;BME280;9907;42.676;26.348;2022-12-18T01:11:17;99563.41;;;13.06;90.32
19526;BME280;9907;42.676;26.348;2022-12-18T01:13:43;99575.97;;;13.05;90.95
19526;BME280;9907;42.676;26.348;2022-12-18T01:16:12;99589.38;;;13.05;91.39
19526;BME280;9907;42.676;26.348;2022-12-18T01:18:38;99600.09;;;13.05;91.80
19526;BME280;9907;42.676;26.348;2022-12-18T01:21:08;99599.25;;;13.05;91.79
19526;BME280;9907;42.676;26.348;2022-12-18T01:23:34;99599.25;;;13.05;90.70
19526;BME280;9907;42.676;26.348;2022-12-18T01:26:11;99605.47;;;13.05;91.58
19526;BME280;9907;42.676;26.348;2022-12-18T01:28:37;99601.06;;;13.04;91.21
19526;BME280;9907;42.676;26.348;2022-12-18T01:31:20;99612.66;;;13.05;90.85
19526;BME280;9907;42.676;26.348;2022-12-18T01:33:46;99607.28;;;13.05;88.48
19526;BME280;9907;42.676;26.348;2022-12-18T01:36:38;99622.41;;;13.06;89.60
19526;BME280;9907;42.676;26.348;2022-12-18T01:39:10;99623.38;;;13.05;90.48
19526;BME280;9907;42.676;26.348;2022-12-18T01:41:36;99629.59;;;13.05;90.37
19526;BME280;9907;42.676;26.348;2022-12-18T01:52:46;99610.53;;;12.99;90.15
19526;BME280;9907;42.676;26.348;2022-12-18T01:55:13;99609.84;;;12.97;90.60
19526;BME280;9907;42.676;26.348;2022-12-18T01:57:40;99605.47;;;12.96;91.89
19526;BME280;9907;42.676;26.348;2022-12-18T02:00:18;99594.00;;;12.94;91.59
19526;BME280;9907;42.676;26.348;2022-12-18T02:02:45;99590.50;;;12.93;92.19
19526;BME280;9907;42.676;26.348;2022-12-18T02:05:13;99587.81;;;12.93;92.70
19526;BME280;9907;42.676;26.348;2022-12-18T02:10:46;99576.38;;;12.91;93.55
19526;BME280;9907;42.676;26.348;2022-12-18T02:13:30;99584.53;;;12.90;94.04
19526;BME280;9907;42.676;26.348;2022-12-18T02:18:45;99565.06;;;12.88;94.62
19526;BME280;9907;42.676;26.348;2022-12-18T02:26:49;99563.66;;;12.84;92.70
19526;BME280;9907;42.676;26.348;2022-12-18T02:29:22;99554.47;;;12.77;89.99
19526;BME280;9907;42.676;26.348;2022-12-18T02:31:53;99550.09;;;12.76;92.24
19526;BME280;9907;42.676;26.348;2022-12-18T02:34:22;99550.25;;;12.74;93.08
19526;BME280;9907;42.676;26.348;2022-12-18T02:36:53;99552.09;;;12.74;92.93
19526;BME280;9907;42.676;26.348;2022-12-18T02:39:20;99560.41;;;12.71;93.54
19526;BME280;9907;42.676;26.348;2022-12-18T02:41:47;99558.81;;;12.68;93.97
19526;BME280;9907;42.676;26.348;2022-12-18T02:44:13;99556.44;;;12.65;93.90
19526;BME280;9907;42.676;26.348;2022-12-18T02:46:45;99568.41;;;12.61;93.42
19526;BME280;9907;42.676;26.348;2022-12-18T02:49:38;99560.63;;;12.48;94.18
19526;BME280;9907;42.676;26.348;2022-12-18T02:52:17;99552.25;;;12.32;93.21
19526;BME280;9907;42.676;26.348;2022-12-18T03:00:12;99561.00;;;12.34;95.17
19526;BME280;9907;42.676;26.348;2022-12-18T03:02:54;99575.22;;;12.35;95.66
19526;BME280;9907;42.676;26.348;2022-12-18T03:05:50;99571.69;;;12.34;95.52
19526;BME280;9907;42.676;26.348;2022-12-18T03:08:29;99584.41;;;12.32;95.44
19526;BME280;9907;42.676;26.348;2022-12-18T03:11:03;99579.03;;;12.32;95.20
19526;BME280;9907;42.676;26.348;2022-12-18T03:16:09;99572.84;;;12.32;95.79
19526;BME280;9907;42.676;26.348;2022-12-18T03:18:42;99580.16;;;12.30;95.63
19526;BME280;9907;42.676;26.348;2022-12-18T03:21:10;99584.69;;;12.29;95.64
19526;BME280;9907;42.676;26.348;2022-12-18T03:23:44;99590.03;;;12.29;96.61
19526;BME280;9907;42.676;26.348;2022-12-18T03:26:16;99584.94;;;12.26;95.63
19526;BME280;9907;42.676;26.348;2022-12-18T03:28:46;99592.25;;;12.24;95.90
19526;BME280;9907;42.676;26.348;2022-12-18T03:31:16;99580.00;;;12.22;96.11
19526;BME280;9907;42.676;26.348;2022-12-18T03:33:53;99592.53;;;12.21;96.54
19526;BME280;9907;42.676;26.348;2022-12-18T03:36:19;99597.03;;;12.20;95.51
19526;BME280;9907;42.676;26.348;2022-12-18T03:38:45;99600.09;;;12.16;93.69
19526;BME280;9907;42.676;26.348;2022-12-18T03:41:23;99606.28;;;12.07;94.37
19526;BME280;9907;42.676;26.348;2022-12-18T03:44:03;99616.41;;;12.03;94.93
19526;BME280;9907;42.676;26.348;2022-12-18T03:46:48;99605.44;;;12.06;96.00
19526;BME280;9907;42.676;26.348;2022-12-18T03:54:55;99625.50;;;12.12;93.44
19526;BME280;9907;42.676;26.348;2022-12-18T03:57:26;99628.28;;;12.10;93.86
19526;BME280;9907;42.676;26.348;2022-12-18T03:59:57;99643.63;;;12.08;93.78
19526;BME280;9907;42.676;26.348;2022-12-18T04:02:25;99643.50;;;12.10;94.00
19526;BME280;9907;42.676;26.348;2022-12-18T04:04:57;99648.00;;;12.09;94.26
19526;BME280;9907;42.676;26.348;2022-12-18T04:07:25;99658.97;;;12.06;93.52
19526;BME280;9907;42.676;26.348;2022-12-18T04:09:53;99655.84;;;12.01;93.01
19526;BME280;9907;42.676;26.348;2022-12-18T04:12:20;99662.91;;;12.02;93.50
19526;BME280;9907;42.676;26.348;2022-12-18T04:14:45;99671.91;;;12.01;93.08
19526;BME280;9907;42.676;26.348;2022-12-18T04:17:11;99669.38;;;12.00;93.35
19526;BME280;9907;42.676;26.348;2022-12-18T04:19:36;99682.75;;;12.00;93.39
19526;BME280;9907;42.676;26.348;2022-12-18T04:22:02;99691.78;;;11.99;93.74
19526;BME280;9907;42.676;26.348;2022-12-18T04:24:27;99694.56;;;11.97;93.45
19526;BME280;9907;42.676;26.348;2022-12-18T04:26:53;99698.25;;;11.96;93.27
19526;BME280;9907;42.676;26.348;2022-12-18T04:29:18;99691.88;;;11.97;90.98
19526;BME280;9907;42.676;26.348;2022-12-18T04:31:44;99705.53;;;11.94;91.72
19526;BME280;9907;42.676;26.348;2022-12-18T04:34:09;99701.78;;;11.97;90.87
19526;BME280;9907;42.676;26.348;2022-12-18T04:36:35;99704.31;;;11.98;90.83
19526;BME280;9907;42.676;26.348;2022-12-18T04:39:00;99702.47;;;11.99;91.02
19526;BME280;9907;42.676;26.348;2022-12-18T04:41:25;99704.03;;;12.01;89.82
19526;BME280;9907;42.676;26.348;2022-12-18T04:43:52;99708.41;;;12.02;88.93
19526;BME280;9907;42.676;26.348;2022-12-18T04:46:17;99711.84;;;12.04;87.66
19526;BME280;9907;42.676;26.348;2022-12-18T04:48:45;99701.94;;;12.05;87.41
19526;BME280;9907;42.676;26.348;2022-12-18T04:51:11;99713.66;;;12.04;87.55
19526;BME280;9907;42.676;26.348;2022-12-18T04:53:37;99704.63;;;12.05;86.98
19526;BME280;9907;42.676;26.348;2022-12-18T04:58:47;99715.34;;;12.05;85.63
19526;BME280;9907;42.676;26.348;2022-12-18T05:01:14;99706.22;;;12.07;86.09
19526;BME280;9907;42.676;26.348;2022-12-18T05:03:40;99718.75;;;12.07;85.96
19526;BME280;9907;42.676;26.348;2022-12-18T05:06:06;99721.28;;;12.08;85.72
19526;BME280;9907;42.676;26.348;2022-12-18T05:08:32;99719.34;;;12.10;84.55
19526;BME280;9907;42.676;26.348;2022-12-18T05:11:02;99726.41;;;12.11;84.98
19526;BME280;9907;42.676;26.348;2022-12-18T05:13:29;99722.13;;;12.09;84.30
19526;BME280;9907;42.676;26.348;2022-12-18T05:15:55;99722.13;;;12.09;83.66
19526;BME280;9907;42.676;26.348;2022-12-18T05:18:21;99731.75;;;12.11;84.75
19526;BME280;9907;42.676;26.348;2022-12-18T05:20:47;99729.19;;;12.10;84.17
19526;BME280;9907;42.676;26.348;2022-12-18T05:23:12;99737.13;;;12.11;82.90
19526;BME280;9907;42.676;26.348;2022-12-18T05:25:38;99737.69;;;12.15;81.98
19526;BME280;9907;42.676;26.348;2022-12-18T05:28:03;99751.09;;;12.15;82.21
19526;BME280;9907;42.676;26.348;2022-12-18T05:30:29;99749.38;;;12.14;81.86
19526;BME280;9907;42.676;26.348;2022-12-18T05:32:54;99746.72;;;12.14;81.56
19526;BME280;9907;42.676;26.348;2022-12-18T05:35:20;99746.72;;;12.14;82.29
19526;BME280;9907;42.676;26.348;2022-12-18T05:37:45;99756.56;;;12.13;81.52
19526;BME280;9907;42.676;26.348;2022-12-18T05:40:11;99766.41;;;12.13;81.28
19526;BME280;9907;42.676;26.348;2022-12-18T05:42:37;99761.06;;;12.13;81.12
19526;BME280;9907;42.676;26.348;2022-12-18T05:45:04;99768.25;;;12.12;81.57
19526;BME280;9907;42.676;26.348;2022-12-18T05:47:30;99771.78;;;12.13;81.66
19526;BME280;9907;42.676;26.348;2022-12-18T05:49:55;99776.16;;;12.14;81.75
19526;BME280;9907;42.676;26.348;2022-12-18T05:52:21;99785.16;;;12.13;80.78
19526;BME280;9907;42.676;26.348;2022-12-18T05:54:47;99793.47;;;12.10;80.24
19526;BME280;9907;42.676;26.348;2022-12-18T05:57:12;99793.72;;;12.07;80.74
19526;BME280;9907;42.676;26.348;2022-12-18T05:59:38;99793.72;;;12.07;80.52
19526;BME280;9907;42.676;26.348;2022-12-18T06:02:03;99804.44;;;12.07;80.04
19526;BME280;9907;42.676;26.348;2022-12-18T06:04:30;99815.16;;;12.07;79.70
19526;BME280;9907;42.676;26.348;2022-12-18T06:06:55;99805.56;;;12.04;80.13
19526;BME280;9907;42.676;26.348;2022-12-18T06:09:21;99810.06;;;12.04;80.09
19526;BME280;9907;42.676;26.348;2022-12-18T06:11:46;99817.09;;;12.05;80.40
19526;BME280;9907;42.676;26.348;2022-12-18T06:14:11;99824.16;;;12.06;79.29
19526;BME280;9907;42.676;26.348;2022-12-18T06:16:37;99840.47;;;12.03;78.26
19526;BME280;9907;42.676;26.348;2022-12-18T06:19:04;99831.47;;;12.04;79.21
19526;BME280;9907;42.676;26.348;2022-12-18T06:21:31;99834.16;;;12.04;79.33
19526;BME280;9907;42.676;26.348;2022-12-18T06:23:57;99836.09;;;12.02;79.11
19526;BME280;9907;42.676;26.348;2022-12-18T06:26:22;99845.00;;;12.02;79.49
19526;BME280;9907;42.676;26.348;2022-12-18T06:28:51;99854.59;;;12.05;78.71
19526;BME280;9907;42.676;26.348;2022-12-18T06:31:16;99864.47;;;12.04;77.74
19526;BME280;9907;42.676;26.348;2022-12-18T06:33:42;99869.81;;;12.04;77.89
19526;BME280;9907;42.676;26.348;2022-12-18T06:36:12;99867.16;;;12.04;77.94
19526;BME280;9907;42.676;26.348;2022-12-18T06:38:39;99875.41;;;12.01;78.03
19526;BME280;9907;42.676;26.348;2022-12-18T06:41:13;99878.94;;;12.02;77.88
19526;BME280;9907;42.676;26.348;2022-12-18T06:43:39;99873.72;;;12.00;78.34
19526;BME280;9907;42.676;26.348;2022-12-18T06:46:05;99877.72;;;12.06;87.61
19526;BME280;9907;42.676;26.348;2022-12-18T06:48:32;99873.78;;;12.21;84.75
19526;BME280;9907;42.676;26.348;2022-12-18T06:50:58;99888.13;;;12.20;80.96
19526;BME280;9907;42.676;26.348;2022-12-18T06:53:24;99884.16;;;12.14;79.95
19526;BME280;9907;42.676;26.348;2022-12-18T06:55:49;99884.16;;;12.14;78.80
19526;BME280;9907;42.676;26.348;2022-12-18T06:58:15;99888.91;;;12.11;78.33
19526;BME280;9907;42.676;26.348;2022-12-18T07:00:41;99896.19;;;12.09;79.06
19526;BME280;9907;42.676;26.348;2022-12-18T07:03:06;99902.31;;;12.11;78.20
19526;BME280;9907;42.676;26.348;2022-12-18T07:05:32;99929.94;;;12.11;78.12
19526;BME280;9907;42.676;26.348;2022-12-18T07:07:58;99925.56;;;12.10;76.63
19526;BME280;9907;42.676;26.348;2022-12-18T07:10:23;99922.97;;;12.09;77.05
19526;BME280;9907;42.676;26.348;2022-12-18T07:12:49;99936.38;;;12.09;77.31
19526;BME280;9907;42.676;26.348;2022-12-18T07:15:14;99933.69;;;12.09;77.83
19526;BME280;9907;42.676;26.348;2022-12-18T07:17:40;99936.38;;;12.09;77.78
19526;BME280;9907;42.676;26.348;2022-12-18T07:20:06;99935.41;;;12.10;78.41
19526;BME280;9907;42.676;26.348;2022-12-18T07:22:31;99945.25;;;12.09;77.78
19526;BME280;9907;42.676;26.348;2022-12-18T07:24:57;99959.41;;;12.11;77.63
19526;BME280;9907;42.676;26.348;2022-12-18T07:27:22;99959.25;;;12.13;78.08
19526;BME280;9907;42.676;26.348;2022-12-18T07:29:48;99964.00;;;12.09;77.63
19526;BME280;9907;42.676;26.348;2022-12-18T07:32:14;99971.94;;;12.11;76.95
19526;BME280;9907;42.676;26.348;2022-12-18T07:34:39;99979.00;;;12.12;77.49
19526;BME280;9907;42.676;26.348;2022-12-18T07:37:05;99983.50;;;12.11;77.43
19526;BME280;9907;42.676;26.348;2022-12-18T07:39:30;99994.06;;;12.13;77.85
19526;BME280;9907;42.676;26.348;2022-12-18T07:41:56;99992.25;;;12.13;78.23
19526;BME280;9907;42.676;26.348;2022-12-18T07:44:40;100002.84;;;12.15;78.27
19526;BME280;9907;42.676;26.348;2022-12-18T07:47:06;100016.25;;;12.15;78.26
19526;BME280;9907;42.676;26.348;2022-12-18T07:49:31;100016.25;;;12.15;78.22
19526;BME280;9907;42.676;26.348;2022-12-18T07:51:57;100022.56;;;12.14;79.10
19526;BME280;9907;42.676;26.348;2022-12-18T07:54:23;100031.47;;;12.14;78.42
19526;BME280;9907;42.676;26.348;2022-12-18T07:56:50;100025.25;;;12.14;78.48
19526;BME280;9907;42.676;26.348;2022-12-18T07:59:15;100030.59;;;12.14;78.71
19526;BME280;9907;42.676;26.348;2022-12-18T08:01:41;100037.78;;;12.13;79.04
19526;BME280;9907;42.676;26.348;2022-12-18T08:04:06;100043.63;;;12.07;78.02
19526;BME280;9907;42.676;26.348;2022-12-18T08:06:32;100042.53;;;12.10;78.07
19526;BME280;9907;42.676;26.348;2022-12-18T08:08:57;100048.00;;;12.08;78.26
19526;BME280;9907;42.676;26.348;2022-12-18T08:11:28;100048.75;;;12.10;78.86
19526;BME280;9907;42.676;26.348;2022-12-18T08:13:54;100043.38;;;12.10;79.45
19526;BME280;9907;42.676;26.348;2022-12-18T08:16:20;100053.13;;;12.11;79.41
19526;BME280;9907;42.676;26.348;2022-12-18T08:18:47;100059.34;;;12.12;79.81
19526;BME280;9907;42.676;26.348;2022-12-18T08:21:18;100062.03;;;12.12;80.12
19526;BME280;9907;42.676;26.348;2022-12-18T08:23:46;100066.28;;;12.14;82.94
19526;BME280;9907;42.676;26.348;2022-12-18T08:26:12;100062.63;;;12.15;81.90
19526;BME280;9907;42.676;26.348;2022-12-18T08:28:37;100056.19;;;12.07;80.93
19526;BME280;9907;42.676;26.348;2022-12-18T08:31:03;100067.75;;;12.07;82.34
19526;BME280;9907;42.676;26.348;2022-12-18T08:33:29;100062.25;;;12.09;84.51
19526;BME280;9907;42.676;26.348;2022-12-18T08:35:54;100072.84;;;12.10;84.99
19526;BME280;9907;42.676;26.348;2022-12-18T08:38:20;100075.53;;;12.10;85.94
19526;BME280;9907;42.676;26.348;2022-12-18T08:40:45;100071.13;;;12.09;88.12
19526;BME280;9907;42.676;26.348;2022-12-18T08:43:11;100067.75;;;12.07;87.90
19526;BME280;9907;42.676;26.348;2022-12-18T08:45:55;100072.34;;;12.05;87.43
19526;BME280;9907;42.676;26.348;2022-12-18T08:48:21;100068.81;;;12.05;89.12
19526;BME280;9907;42.676;26.348;2022-12-18T08:50:57;100071.50;;;12.05;90.83
19526;BME280;9907;42.676;26.348;2022-12-18T08:53:23;100071.38;;;12.06;91.93
19526;BME280;9907;42.676;26.348;2022-12-18T08:55:49;100074.94;;;12.07;94.27
19526;BME280;9907;42.676;26.348;2022-12-18T08:58:14;100071.75;;;12.02;93.27
19526;BME280;9907;42.676;26.348;2022-12-18T09:00:40;100069.44;;;11.97;95.74
19526;BME280;9907;42.676;26.348;2022-12-18T09:03:11;100079.53;;;11.94;96.25
19526;BME280;9907;42.676;26.348;2022-12-18T09:05:37;100079.41;;;11.03;96.67
19526;BME280;9907;42.676;26.348;2022-12-18T09:08:02;100081.28;;;11.14;99.62
19526;BME280;9907;42.676;26.348;2022-12-18T09:10:28;100079.75;;;11.22;98.32
19526;BME280;9907;42.676;26.348;2022-12-18T09:12:53;100080.41;;;11.37;99.05
19526;BME280;9907;42.676;26.348;2022-12-18T09:15:18;100076.13;;;11.46;99.52
19526;BME280;9907;42.676;26.348;2022-12-18T09:17:44;100082.28;;;11.24;98.38
19526;BME280;9907;42.676;26.348;2022-12-18T09:20:10;100089.59;;;11.22;98.77
19526;BME280;9907;42.676;26.348;2022-12-18T09:22:35;100081.75;;;11.08;99.29
19526;BME280;9907;42.676;26.348;2022-12-18T09:25:01;100076.31;;;11.20;100.00
19526;BME280;9907;42.676;26.348;2022-12-18T09:27:26;100079.38;;;11.27;100.00
19526;BME280;9907;42.676;26.348;2022-12-18T09:29:52;100080.72;;;11.33;100.00
19526;BME280;9907;42.676;26.348;2022-12-18T09:32:17;100067.25;;;11.34;100.00
19526;BME280;9907;42.676;26.348;2022-12-18T09:34:43;100078.91;;;11.33;100.00
19526;BME280;9907;42.676;26.348;2022-12-18T09:37:08;100084.13;;;11.35;100.00
19526;BME280;9907;42.676;26.348;2022-12-18T09:39:34;100074.28;;;11.35;100.00
19526;BME280;9907;42.676;26.348;2022-12-18T09:42:00;100074.28;;;11.35;100.00
19526;BME280;9907;42.676;26.348;2022-12-18T09:44:33;100076.88;;;11.37;100.00
19526;BME280;9907;42.676;26.348;2022-12-18T09:49:44;100073.22;;;11.38;100.00
19526;BME280;9907;42.676;26.348;2022-12-18T09:52:23;100070.41;;;11.39;100.00
19526;BME280;9907;42.676;26.348;2022-12-18T09:54:58;100071.88;;;11.43;100.00
19526;BME280;9907;42.676;26.348;2022-12-18T09:57:25;100068.00;;;11.47;100.00
19526;BME280;9907;42.676;26.348;2022-12-18T09:59:57;100070.41;;;11.39;100.00
19526;BME280;9907;42.676;26.348;2022-12-18T10:02:25;100070.78;;;11.46;100.00
19526;BME280;9907;42.676;26.348;2022-12-18T10:05:11;100081.91;;;11.52;100.00
19526;BME280;9907;42.676;26.348;2022-12-18T10:07:55;100080.69;;;11.56;100.00
19526;BME280;9907;42.676;26.348;2022-12-18T10:10:38;100081.16;;;11.61;100.00
19526;BME280;9907;42.676;26.348;2022-12-18T10:13:34;100075.81;;;11.61;100.00
19526;BME280;9907;42.676;26.348;2022-12-18T10:16:14;100077.63;;;11.61;100.00
19526;BME280;9907;42.676;26.348;2022-12-18T10:27:22;100082.00;;;11.51;99.82
19526;BME280;9907;42.676;26.348;2022-12-18T10:29:48;100075.44;;;11.55;100.00
19526;BME280;9907;42.676;26.348;2022-12-18T10:32:20;100079.69;;;11.57;98.25
19526;BME280;9907;42.676;26.348;2022-12-18T10:34:50;100077.78;;;11.24;99.55
19526;BME280;9907;42.676;26.348;2022-12-18T10:37:20;100075.16;;;11.36;100.00
19526;BME280;9907;42.676;26.348;2022-12-18T10:40:06;100078.94;;;11.44;100.00
19526;BME280;9907;42.676;26.348;2022-12-18T10:42:32;100079.44;;;11.49;98.59
19526;BME280;9907;42.676;26.348;2022-12-18T10:45:15;100082.09;;;11.49;97.55
19526;BME280;9907;42.676;26.348;2022-12-18T10:47:47;100079.19;;;11.41;96.87
19526;BME280;9907;42.676;26.348;2022-12-18T10:50:32;100076.72;;;11.38;97.82
19526;BME280;9907;42.676;26.348;2022-12-18T10:53:03;100076.38;;;11.43;96.70
19526;BME280;9907;42.676;26.348;2022-12-18T10:55:39;100087.66;;;11.00;95.13
19526;BME280;9907;42.676;26.348;2022-12-18T10:58:38;100089.16;;;10.81;97.42
19526;BME280;9907;42.676;26.348;2022-12-18T11:03:32;100091.22;;;11.01;95.71
19526;BME280;9907;42.676;26.348;2022-12-18T11:06:20;100082.59;;;11.08;95.37
19526;BME280;9907;42.676;26.348;2022-12-18T11:09:04;100083.22;;;11.12;94.35
19526;BME280;9907;42.676;26.348;2022-12-18T11:11:31;100083.94;;;11.14;94.23
19526;BME280;9907;42.676;26.348;2022-12-18T11:16:30;100077.88;;;11.12;91.46
19526;BME280;9907;42.676;26.348;2022-12-18T11:21:53;100083.94;;;11.14;92.93
19526;BME280;9907;42.676;26.348;2022-12-18T11:24:32;100086.53;;;11.15;92.10
19526;BME280;9907;42.676;26.348;2022-12-18T11:27:04;100081.28;;;11.14;92.16
19526;BME280;9907;42.676;26.348;2022-12-18T11:29:34;100093.88;;;11.01;90.18
19526;BME280;9907;42.676;26.348;2022-12-18T11:35:20;100101.44;;;11.07;92.75
19526;BME280;9907;42.676;26.348;2022-12-18T11:37:57;100093.06;;;11.11;91.95
19526;BME280;9907;42.676;26.348;2022-12-18T11:40:34;100104.63;;;11.12;91.25
19526;BME280;9907;42.676;26.348;2022-12-18T11:43:11;100100.91;;;11.02;89.06
19526;BME280;9907;42.676;26.348;2022-12-18T11:46:01;100103.75;;;10.88;86.84
19526;BME280;9907;42.676;26.348;2022-12-18T11:48:37;100113.03;;;10.95;86.63
19526;BME280;9907;42.676;26.348;2022-12-18T11:51:13;100103.81;;;10.99;87.33
19526;BME280;9907;42.676;26.348;2022-12-18T11:53:40;100118.91;;;11.00;88.08
19526;BME280;9907;42.676;26.348;2022-12-18T11:56:36;100121.56;;;11.00;87.83
19526;BME280;9907;42.676;26.348;2022-12-18T11:59:26;100124.66;;;10.83;84.23
19526;BME280;9907;42.676;26.348;2022-12-18T12:07:20;100143.13;;;10.49;82.65
19526;BME280;9907;42.676;26.348;2022-12-18T12:09:59;100147.00;;;10.45;83.56
19526;BME280;9907;42.676;26.348;2022-12-18T12:18:03;100149.50;;;10.59;87.11
19526;BME280;9907;42.676;26.348;2022-12-18T12:25:49;100162.56;;;10.51;94.74
19526;BME280;9907;42.676;26.348;2022-12-18T12:34:34;100173.06;;;10.16;100.00
19526;BME280;9907;42.676;26.348;2022-12-18T12:39:39;100165.47;;;10.36;100.00
19526;BME280;9907;42.676;26.348;2022-12-18T12:42:13;100175.50;;;10.45;100.00
19526;BME280;9907;42.676;26.348;2022-12-18T12:45:03;100175.81;;;10.53;99.38
19526;BME280;9907;42.676;26.348;2022-12-18T12:47:33;100181.06;;;10.42;99.28
19526;BME280;9907;42.676;26.348;2022-12-18T12:50:03;100181.50;;;10.48;99.18
19526;BME280;9907;42.676;26.348;2022-12-18T12:52:42;100183.72;;;10.54;99.22
19526;BME280;9907;42.676;26.348;2022-12-18T12:55:16;100188.34;;;10.40;100.00
19526;BME280;9907;42.676;26.348;2022-12-18T13:00:46;100200.06;;;10.12;100.00
19526;BME280;9907;42.676;26.348;2022-12-18T13:08:25;100216.72;;;9.90;100.00
19526;BME280;9907;42.676;26.348;2022-12-18T13:10:53;100219.94;;;10.08;100.00
19526;BME280;9907;42.676;26.348;2022-12-18T13:13:54;100220.56;;;10.11;100.00
19526;BME280;9907;42.676;26.348;2022-12-18T13:16:22;100219.63;;;10.12;100.00
19526;BME280;9907;42.676;26.348;2022-12-18T13:18:53;100217.16;;;9.97;100.00
19526;BME280;9907;42.676;26.348;2022-12-18T13:21:35;100218.31;;;10.05;100.00
19526;BME280;9907;42.676;26.348;2022-12-18T13:24:24;100227.97;;;9.68;100.00
19526;BME280;9907;42.676;26.348;2022-12-18T13:26:50;100221.88;;;9.66;100.00
19526;BME280;9907;42.676;26.348;2022-12-18T13:29:45;100236.53;;;9.73;100.00
19526;BME280;9907;42.676;26.348;2022-12-18T13:32:23;100244.97;;;9.80;100.00
19526;BME280;9907;42.676;26.348;2022-12-18T13:37:54;100232.78;;;9.76;100.00
19526;BME280;9907;42.676;26.348;2022-12-18T13:46:17;100261.66;;;9.96;100.00
19526;BME280;9907;42.676;26.348;2022-12-18T13:51:35;100266.31;;;9.80;100.00
19526;BME280;9907;42.676;26.348;2022-12-18T13:54:35;100276.34;;;9.76;100.00
19526;BME280;9907;42.676;26.348;2022-12-18T13:57:02;100283.97;;;9.56;100.00
19526;BME280;9907;42.676;26.348;2022-12-18T13:59:39;100281.31;;;9.56;100.00
19526;BME280;9907;42.676;26.348;2022-12-18T14:02:22;100286.84;;;9.53;100.00
19526;BME280;9907;42.676;26.348;2022-12-18T14:04:49;100292.78;;;9.70;100.00
19526;BME280;9907;42.676;26.348;2022-12-18T14:07:17;100293.88;;;9.81;100.00
19526;BME280;9907;42.676;26.348;2022-12-18T14:09:46;100288.78;;;9.90;100.00
19526;BME280;9907;42.676;26.348;2022-12-18T14:12:28;100297.31;;;9.95;100.00
19526;BME280;9907;42.676;26.348;2022-12-18T14:20:29;100302.59;;;9.70;100.00
19526;BME280;9907;42.676;26.348;2022-12-18T14:22:55;100307.41;;;9.77;100.00
19526;BME280;9907;42.676;26.348;2022-12-18T14:30:43;100300.69;;;9.45;100.00
19526;BME280;9907;42.676;26.348;2022-12-18T14:33:11;100311.19;;;9.61;100.00
19526;BME280;9907;42.676;26.348;2022-12-18T14:35:53;100304.09;;;9.47;100.00
19526;BME280;9907;42.676;26.348;2022-12-18T14:38:26;100308.34;;;9.50;100.00
19526;BME280;9907;42.676;26.348;2022-12-18T14:40:57;100315.78;;;9.59;100.00
19526;BME280;9907;42.676;26.348;2022-12-18T14:43:22;100321.75;;;9.62;100.00
19526;BME280;9907;42.676;26.348;2022-12-18T14:45:48;100320.81;;;9.63;100.00
19526;BME280;9907;42.676;26.348;2022-12-18T14:48:32;100316.44;;;9.62;100.00
19526;BME280;9907;42.676;26.348;2022-12-18T14:51:02;100324.22;;;9.65;100.00
19526;BME280;9907;42.676;26.348;2022-12-18T14:55:59;100334.25;;;9.62;100.00
19526;BME280;9907;42.676;26.348;2022-12-18T14:58:25;100340.53;;;9.61;100.00
19526;BME280;9907;42.676;26.348;2022-12-18T15:00:51;100345.03;;;9.60;100.00
19526;BME280;9907;42.676;26.348;2022-12-18T15:03:21;100340.00;;;9.56;100.00
19526;BME280;9907;42.676;26.348;2022-12-18T15:05:47;100349.06;;;9.53;100.00